createdAt,value
2022-10-06T00:00:42.039Z,1014.33
2022-10-06T00:01:42.008Z,1014.35
2022-10-06T00:02:42.014Z,1014.36
2022-10-06T00:03:41.959Z,1014.41
2022-10-06T00:04:41.928Z,1014.44
2022-10-06T00:05:41.920Z,1014.45
2022-10-06T00:06:41.987Z,1014.56
2022-10-06T00:07:41.907Z,1014.55
2022-10-06T00:08:41.889Z,1014.58
2022-10-06T00:09:41.881Z,1014.56
2022-10-06T00:10:41.873Z,1014.47
2022-10-06T00:11:41.843Z,1014.49
2022-10-06T00:12:41.966Z,1014.47
2022-10-06T00:13:41.840Z,1014.49
2022-10-06T00:14:41.824Z,1014.56
2022-10-06T00:15:41.840Z,1014.58
2022-10-06T00:16:41.772Z,1014.63
2022-10-06T00:17:41.764Z,1014.61
2022-10-06T00:18:41.875Z,1014.60
2022-10-06T00:19:41.728Z,1014.61
2022-10-06T00:20:41.745Z,1014.62
2022-10-06T00:21:41.723Z,1014.62
2022-10-06T00:22:41.703Z,1014.69
2022-10-06T00:23:41.673Z,1014.72
2022-10-06T00:24:41.718Z,1014.83
2022-10-06T00:25:41.653Z,1014.76
2022-10-06T00:26:41.683Z,1014.80
2022-10-06T00:27:41.637Z,1014.87
2022-10-06T00:28:41.674Z,1014.86
2022-10-06T00:29:42.298Z,1014.92
2022-10-06T00:30:41.791Z,1014.86
2022-10-06T00:31:42.387Z,1014.88
2022-10-06T00:32:41.592Z,1014.88
2022-10-06T00:33:41.544Z,1014.88
2022-10-06T00:34:41.548Z,1014.93
2022-10-06T00:35:41.533Z,1014.89
2022-10-06T00:36:41.617Z,1014.89
2022-10-06T00:37:41.539Z,1014.94
2022-10-06T00:38:41.502Z,1014.96
2022-10-06T00:39:41.483Z,1014.97
2022-10-06T00:40:41.472Z,1014.96
2022-10-06T00:41:41.428Z,1015.02
2022-10-06T00:42:41.471Z,1015.02
2022-10-06T00:43:42.161Z,1015.04
2022-10-06T00:44:41.400Z,1014.97
2022-10-06T00:45:41.394Z,1015.08
2022-10-06T00:46:42.414Z,1015.07
2022-10-06T00:47:41.511Z,1015.10
2022-10-06T00:48:41.474Z,1015.08
2022-10-06T00:49:41.333Z,1015.08
2022-10-06T00:50:41.335Z,1015.03
2022-10-06T00:51:41.344Z,1015.12
2022-10-06T00:52:41.292Z,1015.08
2022-10-06T00:53:41.293Z,1015.10
2022-10-06T00:54:41.405Z,1015.14
2022-10-06T00:55:41.265Z,1015.14
2022-10-06T00:56:41.268Z,1015.15
2022-10-06T00:57:41.248Z,1015.18
2022-10-06T00:58:41.204Z,1015.21
2022-10-06T00:59:41.195Z,1015.18
2022-10-06T01:00:41.238Z,1015.24
2022-10-06T01:01:41.219Z,1015.27
2022-10-06T01:02:41.229Z,1015.28
2022-10-06T01:03:41.174Z,1015.30
2022-10-06T01:04:41.136Z,1015.34
2022-10-06T01:05:41.130Z,1015.32
2022-10-06T01:06:41.220Z,1015.35
2022-10-06T01:07:41.088Z,1015.36
2022-10-06T01:08:41.100Z,1015.37
2022-10-06T01:09:41.107Z,1015.33
2022-10-06T01:10:41.048Z,1015.32
2022-10-06T01:11:41.038Z,1015.31
2022-10-06T01:12:41.161Z,1015.31
2022-10-06T01:13:41.043Z,1015.34
2022-10-06T01:14:41.012Z,1015.33
2022-10-06T01:15:41.093Z,1015.33
2022-10-06T01:16:40.991Z,1015.33
2022-10-06T01:17:40.974Z,1015.30
2022-10-06T01:18:41.078Z,1015.33
2022-10-06T01:19:40.971Z,1015.31
2022-10-06T01:20:40.935Z,1015.36
2022-10-06T01:21:40.901Z,1015.41
2022-10-06T01:22:40.966Z,1015.44
2022-10-06T01:23:40.946Z,1015.44
2022-10-06T01:24:40.923Z,1015.48
2022-10-06T01:25:40.873Z,1015.48
2022-10-06T01:26:40.881Z,1015.49
2022-10-06T01:27:40.841Z,1015.57
2022-10-06T01:28:40.913Z,1015.62
2022-10-06T01:29:40.817Z,1015.55
2022-10-06T01:30:40.863Z,1015.59
2022-10-06T01:31:41.735Z,1015.62
2022-10-06T01:32:40.809Z,1015.64
2022-10-06T01:33:40.745Z,1015.65
2022-10-06T01:34:40.767Z,1015.71
2022-10-06T01:35:40.731Z,1015.67
2022-10-06T01:36:40.746Z,1015.67
2022-10-06T01:37:40.742Z,1015.65
2022-10-06T01:38:40.677Z,1015.73
2022-10-06T01:39:40.660Z,1015.70
2022-10-06T01:40:40.661Z,1015.69
2022-10-06T01:41:40.648Z,1015.72
2022-10-06T01:42:40.687Z,1015.71
2022-10-06T01:43:40.622Z,1015.75
2022-10-06T01:44:40.619Z,1015.73
2022-10-06T01:45:40.594Z,1015.75
2022-10-06T01:46:40.647Z,1015.72
2022-10-06T01:47:40.560Z,1015.71
2022-10-06T01:48:40.604Z,1015.77
2022-10-06T01:49:40.584Z,1015.73
2022-10-06T01:50:40.551Z,1015.67
2022-10-06T01:51:40.534Z,1015.78
2022-10-06T01:52:40.500Z,1015.81
2022-10-06T01:53:40.507Z,1015.82
2022-10-06T01:54:40.516Z,1015.86
2022-10-06T01:55:40.461Z,1015.91
2022-10-06T01:56:40.456Z,1015.89
2022-10-06T01:57:40.475Z,1015.89
2022-10-06T01:58:40.445Z,1015.87
2022-10-06T01:59:40.445Z,1015.94
2022-10-06T02:00:40.517Z,1015.94
2022-10-06T02:01:40.424Z,1015.96
2022-10-06T02:02:40.387Z,1016.02
2022-10-06T02:03:40.370Z,1016.04
2022-10-06T02:04:40.336Z,1016.02
2022-10-06T02:05:40.340Z,1016.08
2022-10-06T02:06:40.493Z,1016.05
2022-10-06T02:07:40.361Z,1016.09
2022-10-06T02:08:40.301Z,1016.13
2022-10-06T02:09:40.266Z,1016.14
2022-10-06T02:10:40.270Z,1016.17
2022-10-06T02:11:40.260Z,1016.15
2022-10-06T02:12:40.266Z,1016.16
2022-10-06T02:13:40.212Z,1016.21
2022-10-06T02:14:40.223Z,1016.32
2022-10-06T02:15:40.257Z,1016.22
2022-10-06T02:16:40.181Z,1016.33
2022-10-06T02:17:40.180Z,1016.40
2022-10-06T02:18:40.289Z,1016.45
2022-10-06T02:19:41.080Z,1016.45
2022-10-06T02:20:40.143Z,1016.40
2022-10-06T02:21:40.130Z,1016.45
2022-10-06T02:22:40.115Z,1016.47
2022-10-06T02:23:40.095Z,1016.54
2022-10-06T02:24:40.182Z,1016.55
2022-10-06T02:25:40.097Z,1016.51
2022-10-06T02:26:40.067Z,1016.53
2022-10-06T02:27:40.032Z,1016.53
2022-10-06T02:28:40.115Z,1016.58
2022-10-06T02:29:40.021Z,1016.59
2022-10-06T02:30:40.028Z,1016.59
2022-10-06T02:31:40.020Z,1016.64
2022-10-06T02:32:40.023Z,1016.63
2022-10-06T02:33:39.992Z,1016.69
2022-10-06T02:34:39.959Z,1016.69
2022-10-06T02:35:39.955Z,1016.68
2022-10-06T02:36:39.959Z,1016.71
2022-10-06T02:37:39.907Z,1016.65
2022-10-06T02:38:39.905Z,1016.64
2022-10-06T02:39:39.872Z,1016.70
2022-10-06T02:40:39.877Z,1016.73
2022-10-06T02:41:39.827Z,1016.70
2022-10-06T02:42:39.891Z,1016.68
2022-10-06T02:43:40.817Z,1016.73
2022-10-06T02:44:39.882Z,1016.84
2022-10-06T02:45:39.810Z,1016.80
2022-10-06T02:46:39.811Z,1016.83
2022-10-06T02:47:39.772Z,1016.86
2022-10-06T02:48:39.881Z,1016.91
2022-10-06T02:49:39.748Z,1016.91
2022-10-06T02:50:39.743Z,1016.85
2022-10-06T02:51:39.744Z,1016.93
2022-10-06T02:52:39.700Z,1017.04
2022-10-06T02:53:39.720Z,1017.12
2022-10-06T02:54:39.794Z,1017.10
2022-10-06T02:55:39.669Z,1017.06
2022-10-06T02:56:41.301Z,1017.10
2022-10-06T02:57:39.642Z,1017.14
2022-10-06T02:58:39.635Z,1017.12
2022-10-06T02:59:39.617Z,1017.19
2022-10-06T03:00:39.662Z,1017.20
2022-10-06T03:01:39.699Z,1017.17
2022-10-06T03:02:39.707Z,1017.22
2022-10-06T03:03:39.577Z,1017.29
2022-10-06T03:04:39.542Z,1017.27
2022-10-06T03:05:39.548Z,1017.28
2022-10-06T03:06:39.632Z,1017.29
2022-10-06T03:07:39.511Z,1017.29
2022-10-06T03:08:39.489Z,1017.35
2022-10-06T03:09:40.441Z,1017.35
2022-10-06T03:10:39.480Z,1017.34
2022-10-06T03:11:39.470Z,1017.39
2022-10-06T03:12:39.556Z,1017.36
2022-10-06T03:13:39.441Z,1017.38
2022-10-06T03:14:39.409Z,1017.50
2022-10-06T03:15:39.398Z,1017.51
2022-10-06T03:16:39.392Z,1017.53
2022-10-06T03:17:39.394Z,1017.47
2022-10-06T03:18:39.468Z,1017.52
2022-10-06T03:19:39.347Z,1017.54
2022-10-06T03:20:39.349Z,1017.57
2022-10-06T03:21:39.331Z,1017.59
2022-10-06T03:22:39.314Z,1017.60
2022-10-06T03:23:39.342Z,1017.63
2022-10-06T03:24:39.394Z,1017.65
2022-10-06T03:25:39.274Z,1017.69
2022-10-06T03:26:39.254Z,1017.72
2022-10-06T03:27:39.241Z,1017.71
2022-10-06T03:28:39.313Z,1017.72
2022-10-06T03:29:39.218Z,1017.67
2022-10-06T03:30:39.245Z,1017.70
2022-10-06T03:31:39.295Z,1017.73
2022-10-06T03:32:39.172Z,1017.78
2022-10-06T03:33:39.153Z,1017.82
2022-10-06T03:34:39.157Z,1017.81
2022-10-06T03:35:39.138Z,1017.78
2022-10-06T03:36:39.434Z,1017.83
2022-10-06T03:37:39.128Z,1017.79
2022-10-06T03:38:39.085Z,1017.84
2022-10-06T03:39:39.075Z,1017.82
2022-10-06T03:40:39.070Z,1017.87
2022-10-06T03:41:39.072Z,1017.85
2022-10-06T03:42:39.102Z,1017.91
2022-10-06T03:43:39.049Z,1017.88
2022-10-06T03:44:39.017Z,1017.92
2022-10-06T03:45:39.012Z,1017.93
2022-10-06T03:46:39.031Z,1017.98
2022-10-06T03:47:38.983Z,1017.84
2022-10-06T03:48:39.001Z,1017.91
2022-10-06T03:49:38.954Z,1017.92
2022-10-06T03:50:38.945Z,1017.93
2022-10-06T03:51:38.941Z,1018.02
2022-10-06T03:52:38.909Z,1018.08
2022-10-06T03:53:38.917Z,1018.06
2022-10-06T03:54:38.991Z,1018.03
2022-10-06T03:55:38.862Z,1018.06
2022-10-06T03:56:38.881Z,1018.05
2022-10-06T03:57:39.801Z,1018.09
2022-10-06T03:58:38.835Z,1018.10
2022-10-06T03:59:38.834Z,1018.12
2022-10-06T04:00:38.976Z,1018.13
2022-10-06T04:01:38.852Z,1018.10
2022-10-06T04:02:38.773Z,1018.15
2022-10-06T04:03:38.763Z,1018.16
2022-10-06T04:04:38.768Z,1018.19
2022-10-06T04:05:38.767Z,1018.20
2022-10-06T04:06:38.834Z,1018.24
2022-10-06T04:07:38.720Z,1018.31
2022-10-06T04:08:38.708Z,1018.40
2022-10-06T04:09:38.676Z,1018.43
2022-10-06T04:10:38.688Z,1018.31
2022-10-06T04:11:38.677Z,1018.41
2022-10-06T04:12:38.765Z,1018.41
2022-10-06T04:13:38.648Z,1018.39
2022-10-06T04:14:38.616Z,1018.42
2022-10-06T04:15:38.607Z,1018.42
2022-10-06T04:16:39.581Z,1018.45
2022-10-06T04:17:38.578Z,1018.45
2022-10-06T04:18:38.613Z,1018.45
2022-10-06T04:19:38.572Z,1018.56
2022-10-06T04:20:38.548Z,1018.54
2022-10-06T04:21:38.532Z,1018.64
2022-10-06T04:22:38.522Z,1018.66
2022-10-06T04:23:38.522Z,1018.64
2022-10-06T04:24:38.602Z,1018.65
2022-10-06T04:25:38.494Z,1018.68
2022-10-06T04:26:38.459Z,1018.70
2022-10-06T04:27:38.443Z,1018.71
2022-10-06T04:28:38.478Z,1018.70
2022-10-06T04:29:38.421Z,1018.73
2022-10-06T04:30:38.541Z,1018.76
2022-10-06T04:31:38.433Z,1018.80
2022-10-06T04:32:38.402Z,1018.78
2022-10-06T04:33:38.404Z,1018.79
2022-10-06T04:34:38.402Z,1018.83
2022-10-06T04:35:38.351Z,1018.80
2022-10-06T04:36:38.464Z,1018.85
2022-10-06T04:37:38.337Z,1018.89
2022-10-06T04:38:38.302Z,1018.91
2022-10-06T04:39:38.283Z,1018.95
2022-10-06T04:40:38.986Z,1018.93
2022-10-06T04:41:39.214Z,1018.95
2022-10-06T04:42:38.376Z,1018.97
2022-10-06T04:43:38.259Z,1019.02
2022-10-06T04:44:38.216Z,1019.03
2022-10-06T04:45:38.334Z,1019.01
2022-10-06T04:46:43.215Z,1019.04
2022-10-06T04:47:39.297Z,1019.09
2022-10-06T04:48:38.182Z,1019.09
2022-10-06T04:49:38.166Z,1019.10
2022-10-06T04:50:38.162Z,1019.11
2022-10-06T04:51:38.151Z,1019.09
2022-10-06T04:52:38.116Z,1019.17
2022-10-06T04:53:38.246Z,1019.17
2022-10-06T04:54:38.089Z,1019.23
2022-10-06T04:55:38.080Z,1019.18
2022-10-06T04:56:38.096Z,1019.21
2022-10-06T04:57:38.066Z,1019.27
2022-10-06T04:58:38.057Z,1019.26
2022-10-06T04:59:38.074Z,1019.30
2022-10-06T05:00:38.785Z,1019.35
2022-10-06T05:01:38.030Z,1019.37
2022-10-06T05:02:38.070Z,1019.38
2022-10-06T05:03:37.984Z,1019.41
2022-10-06T05:04:37.966Z,1019.42
2022-10-06T05:05:38.062Z,1019.43
2022-10-06T05:06:37.937Z,1019.48
2022-10-06T05:07:37.946Z,1019.46
2022-10-06T05:08:37.893Z,1019.42
2022-10-06T05:09:37.894Z,1019.46
2022-10-06T05:10:37.901Z,1019.51
2022-10-06T05:11:37.998Z,1019.53
2022-10-06T05:12:37.846Z,1019.58
2022-10-06T05:13:37.858Z,1019.58
2022-10-06T05:14:37.818Z,1019.59
2022-10-06T05:15:37.810Z,1019.61
2022-10-06T05:16:37.888Z,1019.60
2022-10-06T05:17:37.893Z,1019.63
2022-10-06T05:18:37.771Z,1019.66
2022-10-06T05:19:37.760Z,1019.70
2022-10-06T05:20:37.726Z,1019.74
2022-10-06T05:21:37.732Z,1019.73
2022-10-06T05:22:37.707Z,1019.74
2022-10-06T05:23:37.825Z,1019.71
2022-10-06T05:24:37.691Z,1019.79
2022-10-06T05:25:37.691Z,1019.76
2022-10-06T05:26:37.649Z,1019.83
2022-10-06T05:27:37.654Z,1019.80
2022-10-06T05:28:37.666Z,1019.79
2022-10-06T05:29:37.729Z,1019.79
2022-10-06T05:30:37.621Z,1019.84
2022-10-06T05:31:37.664Z,1019.88
2022-10-06T05:32:37.560Z,1019.86
2022-10-06T05:33:37.574Z,1019.91
2022-10-06T05:34:37.551Z,1019.94
2022-10-06T05:35:37.651Z,1019.95
2022-10-06T05:36:37.525Z,1019.96
2022-10-06T05:37:37.513Z,1019.98
2022-10-06T05:38:38.211Z,1020.06
2022-10-06T05:39:37.496Z,1020.01
2022-10-06T05:40:37.464Z,1020.09
2022-10-06T05:41:37.490Z,1020.15
2022-10-06T05:42:37.447Z,1020.18
2022-10-06T05:43:37.439Z,1020.16
2022-10-06T05:44:37.412Z,1020.19
2022-10-06T05:45:37.448Z,1020.20
2022-10-06T05:46:37.389Z,1020.24
2022-10-06T05:47:37.494Z,1020.25
2022-10-06T05:48:37.374Z,1020.26
2022-10-06T05:49:37.348Z,1020.31
2022-10-06T05:50:37.340Z,1020.31
2022-10-06T05:51:37.340Z,1020.31
2022-10-06T05:52:38.266Z,1020.33
2022-10-06T05:53:37.385Z,1020.40
2022-10-06T05:54:37.277Z,1020.36
2022-10-06T05:55:37.268Z,1020.37
2022-10-06T05:56:38.221Z,1020.43
2022-10-06T05:57:37.252Z,1020.44
2022-10-06T05:58:37.240Z,1020.43
2022-10-06T05:59:37.252Z,1020.56
2022-10-06T06:00:37.199Z,1020.62
2022-10-06T06:01:37.275Z,1020.64
2022-10-06T06:02:37.223Z,1020.64
2022-10-06T06:03:37.161Z,1020.64
2022-10-06T06:04:37.164Z,1020.67
2022-10-06T06:05:37.250Z,1020.71
2022-10-06T06:06:37.136Z,1020.72
2022-10-06T06:07:37.139Z,1020.77
2022-10-06T06:08:37.091Z,1020.77
2022-10-06T06:09:37.096Z,1020.81
2022-10-06T06:10:37.064Z,1020.78
2022-10-06T06:11:38.142Z,1020.91
2022-10-06T06:12:37.056Z,1020.88
2022-10-06T06:13:37.038Z,1020.86
2022-10-06T06:14:37.013Z,1020.94
2022-10-06T06:15:37.003Z,1020.95
2022-10-06T06:16:37.139Z,1020.89
2022-10-06T06:17:37.274Z,1021.01
2022-10-06T06:18:36.969Z,1020.99
2022-10-06T06:19:36.959Z,1020.99
2022-10-06T06:20:36.926Z,1020.99
2022-10-06T06:21:36.939Z,1021.01
2022-10-06T06:22:36.905Z,1021.06
2022-10-06T06:23:37.025Z,1021.05
2022-10-06T06:24:36.888Z,1021.07
2022-10-06T06:25:36.867Z,1021.03
2022-10-06T06:26:36.899Z,1020.99
2022-10-06T06:27:36.850Z,1021.03
2022-10-06T06:28:36.938Z,1021.02
2022-10-06T06:29:36.836Z,1020.99
2022-10-06T06:30:36.809Z,1021.08
2022-10-06T06:31:36.836Z,1021.10
2022-10-06T06:32:36.766Z,1021.18
2022-10-06T06:33:36.784Z,1021.13
2022-10-06T06:34:36.730Z,1021.08
2022-10-06T06:35:36.769Z,1021.08
2022-10-06T06:36:36.728Z,1021.14
2022-10-06T06:37:36.699Z,1021.17
2022-10-06T06:38:36.702Z,1021.16
2022-10-06T06:39:36.693Z,1021.20
2022-10-06T06:40:36.663Z,1021.20
2022-10-06T06:41:36.695Z,1021.20
2022-10-06T06:42:36.631Z,1021.23
2022-10-06T06:43:36.644Z,1021.22
2022-10-06T06:44:36.624Z,1021.33
2022-10-06T06:45:36.613Z,1021.31
2022-10-06T06:46:36.593Z,1021.42
2022-10-06T06:47:36.704Z,1021.42
2022-10-06T06:48:36.567Z,1021.47
2022-10-06T06:49:36.559Z,1021.44
2022-10-06T06:50:36.539Z,1021.47
2022-10-06T06:51:36.528Z,1021.47
2022-10-06T06:52:36.494Z,1021.53
2022-10-06T06:53:36.628Z,1021.61
2022-10-06T06:54:36.472Z,1021.59
2022-10-06T06:55:36.465Z,1021.60
2022-10-06T06:56:36.463Z,1021.62
2022-10-06T06:57:36.434Z,1021.58
2022-10-06T06:58:36.436Z,1021.65
2022-10-06T06:59:36.452Z,1021.70
2022-10-06T07:00:36.504Z,1021.70
2022-10-06T07:01:36.602Z,1021.68
2022-10-06T07:02:36.386Z,1021.72
2022-10-06T07:03:56.636Z,1021.73
2022-10-06T07:04:37.474Z,1021.75
2022-10-06T07:05:36.349Z,1021.77
2022-10-06T07:06:36.310Z,1021.77
2022-10-06T07:07:36.300Z,1021.77
2022-10-06T07:08:36.315Z,1021.77
2022-10-06T07:09:36.307Z,1021.82
2022-10-06T07:10:36.404Z,1021.83
2022-10-06T07:11:36.255Z,1021.90
2022-10-06T07:12:36.243Z,1021.86
2022-10-06T07:13:36.235Z,1021.91
2022-10-06T07:14:36.212Z,1021.93
2022-10-06T07:15:36.208Z,1021.96
2022-10-06T07:16:36.304Z,1021.99
2022-10-06T07:17:36.176Z,1021.97
2022-10-06T07:18:36.164Z,1021.98
2022-10-06T07:19:36.142Z,1021.96
2022-10-06T07:20:36.148Z,1022.05
2022-10-06T07:21:36.115Z,1022.08
2022-10-06T07:22:36.806Z,1022.09
2022-10-06T07:23:36.099Z,1022.12
2022-10-06T07:24:36.074Z,1022.12
2022-10-06T07:25:37.048Z,1022.07
2022-10-06T07:26:36.764Z,1022.06
2022-10-06T07:27:36.035Z,1022.12
2022-10-06T07:28:36.194Z,1022.11
2022-10-06T07:29:36.004Z,1022.13
2022-10-06T07:30:39.867Z,1022.11
2022-10-06T07:31:36.081Z,1022.14
2022-10-06T07:32:35.976Z,1022.20
2022-10-06T07:33:35.947Z,1022.16
2022-10-06T07:34:36.011Z,1022.15
2022-10-06T07:35:35.947Z,1022.22
2022-10-06T07:36:35.918Z,1022.24
2022-10-06T07:37:35.913Z,1022.20
2022-10-06T07:38:36.851Z,1022.24
2022-10-06T09:52:11.036Z,1024.12
2022-10-06T09:53:11.001Z,1024.05
2022-10-06T09:54:11.681Z,1024.07
2022-10-06T09:55:10.965Z,1024.13
2022-10-06T09:56:10.976Z,1024.01
2022-10-06T09:57:10.936Z,1024.05
2022-10-06T09:58:10.960Z,1024.02
2022-10-06T09:59:10.933Z,1024.03
2022-10-06T10:00:10.899Z,1024.01
2022-10-06T10:01:10.960Z,1024.03
2022-10-06T10:02:10.884Z,1024.05
2022-10-06T10:03:10.873Z,1024.10
2022-10-06T10:04:26.252Z,1024.15
2022-10-06T10:05:12.355Z,1024.12
2022-10-06T10:06:34.575Z,1024.15
2022-10-06T10:07:11.059Z,1024.17
2022-10-06T10:08:10.973Z,1024.20
2022-10-06T10:09:15.575Z,1024.20
2022-10-06T10:10:11.687Z,1024.23
2022-10-06T10:11:11.184Z,1024.17
2022-10-06T10:12:11.183Z,1024.11
2022-10-06T10:13:15.771Z,1024.18
2022-10-06T10:14:10.736Z,1024.21
2022-10-06T10:15:14.813Z,1024.19
2022-10-06T10:16:12.639Z,1024.21
2022-10-06T10:17:12.417Z,1024.15
2022-10-06T10:18:10.724Z,1024.18
2022-10-06T10:19:14.678Z,1024.26
2022-10-06T10:20:10.679Z,1024.14
2022-10-06T10:21:10.687Z,1024.16
2022-10-06T10:22:15.410Z,1024.27
2022-10-06T10:23:10.658Z,1024.23
2022-10-06T10:24:10.610Z,1024.17
2022-10-06T10:25:10.909Z,1024.12
2022-10-06T10:26:10.573Z,1024.12
2022-10-06T10:27:10.612Z,1024.17
2022-10-06T10:28:11.559Z,1024.09
2022-10-06T10:29:10.559Z,1024.13
2022-10-06T10:30:10.771Z,1024.16
2022-10-06T10:31:10.596Z,1024.26
2022-10-06T10:32:14.452Z,1024.23
2022-10-06T10:33:10.531Z,1024.20
2022-10-06T10:34:23.926Z,1024.16
2022-10-06T10:35:12.377Z,1024.21
2022-10-06T10:36:14.581Z,1024.17
2022-10-06T10:37:11.211Z,1024.22
2022-10-06T10:38:14.576Z,1024.12
2022-10-06T10:39:10.408Z,1024.20
2022-10-06T10:40:10.401Z,1024.17
2022-10-06T10:41:10.369Z,1024.16
2022-10-06T10:42:10.337Z,1024.20
2022-10-06T10:43:10.340Z,1024.23
2022-10-06T10:44:10.310Z,1024.19
2022-10-06T10:45:10.298Z,1024.22
2022-10-06T10:46:10.332Z,1024.17
2022-10-06T10:47:10.268Z,1024.24
2022-10-06T10:48:10.277Z,1024.28
2022-10-06T10:49:10.263Z,1024.31
2022-10-06T10:50:10.230Z,1024.29
2022-10-06T10:51:10.210Z,1024.47
2022-10-06T10:52:10.248Z,1024.36
2022-10-06T10:53:10.249Z,1024.35
2022-10-06T10:54:10.170Z,1024.32
2022-10-06T10:55:10.174Z,1024.38
2022-10-06T10:56:10.153Z,1024.34
2022-10-06T10:57:10.132Z,1024.35
2022-10-06T10:58:10.175Z,1024.39
2022-10-06T10:59:10.109Z,1024.34
2022-10-06T11:00:10.098Z,1024.36
2022-10-06T11:01:10.152Z,1024.45
2022-10-06T11:02:10.156Z,1024.44
2022-10-06T11:03:10.068Z,1024.41
2022-10-06T11:04:10.055Z,1024.45
2022-10-06T11:05:10.045Z,1024.54
2022-10-06T11:06:10.018Z,1024.50
2022-10-06T11:07:10.008Z,1024.39
2022-10-06T11:08:09.976Z,1024.36
2022-10-06T11:09:09.971Z,1024.51
2022-10-06T11:10:10.083Z,1024.42
2022-10-06T11:11:09.936Z,1024.44
2022-10-06T11:12:09.932Z,1024.43
2022-10-06T11:13:09.930Z,1024.48
2022-10-06T11:14:09.903Z,1024.54
2022-10-06T11:15:09.901Z,1024.46
2022-10-06T11:16:09.947Z,1024.41
2022-10-06T11:17:09.859Z,1024.43
2022-10-06T11:18:09.854Z,1024.46
2022-10-06T11:19:09.829Z,1024.37
2022-10-06T11:20:09.832Z,1024.44
2022-10-06T11:21:09.825Z,1024.47
2022-10-06T11:22:09.911Z,1024.40
2022-10-06T11:23:09.793Z,1024.40
2022-10-06T11:24:09.752Z,1024.34
2022-10-06T11:25:09.754Z,1024.32
2022-10-06T11:26:09.788Z,1024.40
2022-10-06T11:27:09.724Z,1024.41
2022-10-06T11:28:09.815Z,1024.39
2022-10-06T11:29:09.710Z,1024.41
2022-10-06T11:30:09.674Z,1024.37
2022-10-06T11:31:09.726Z,1024.39
2022-10-06T11:32:09.644Z,1024.33
2022-10-06T11:33:09.635Z,1024.35
2022-10-06T11:34:09.751Z,1024.35
2022-10-06T11:35:09.618Z,1024.42
2022-10-06T11:36:09.609Z,1024.38
2022-10-06T11:37:09.601Z,1024.38
2022-10-06T11:38:09.566Z,1024.36
2022-10-06T11:39:09.571Z,1024.42
2022-10-06T11:40:09.661Z,1024.39
2022-10-06T11:41:10.149Z,1024.35
2022-10-06T11:42:09.517Z,1024.38
2022-10-06T11:43:09.513Z,1024.37
2022-10-06T11:44:09.487Z,1024.40
2022-10-06T11:45:09.481Z,1024.44
2022-10-06T11:46:09.642Z,1024.46
2022-10-06T11:47:09.447Z,1024.48
2022-10-06T11:48:09.454Z,1024.45
2022-10-06T11:49:09.434Z,1024.42
2022-10-06T11:50:09.399Z,1024.46
2022-10-06T11:51:09.404Z,1024.46
2022-10-06T11:52:09.425Z,1024.45
2022-10-06T11:53:09.377Z,1024.43
2022-10-06T11:54:09.356Z,1024.46
2022-10-06T11:55:09.347Z,1024.56
2022-10-06T11:56:09.323Z,1024.49
2022-10-06T11:57:09.311Z,1024.40
2022-10-06T11:58:29.947Z,1024.44
2022-10-06T11:59:10.286Z,1024.46
2022-10-06T12:00:09.277Z,1024.42
2022-10-06T12:01:09.270Z,1024.45
2022-10-06T12:02:09.316Z,1024.39
2022-10-06T12:03:09.340Z,1024.37
2022-10-06T12:04:09.336Z,1024.41
2022-10-06T12:05:28.521Z,1024.44
2022-10-06T12:06:10.189Z,1024.43
2022-10-06T12:07:09.167Z,1024.38
2022-10-06T12:08:09.170Z,1024.43
2022-10-06T12:09:09.161Z,1024.41
2022-10-06T12:10:09.249Z,1024.39
2022-10-06T12:11:10.079Z,1024.42
2022-10-06T12:12:09.115Z,1024.44
2022-10-06T12:13:13.875Z,1024.42
2022-10-06T12:15:31.874Z,1024.44
2022-10-06T12:17:14.217Z,1024.41
2022-10-06T12:18:10.032Z,1024.37
2022-10-06T12:19:09.002Z,1024.39
2022-10-06T12:20:09.005Z,1024.39
2022-10-06T12:21:09.015Z,1024.41
2022-10-06T12:22:08.955Z,1024.43
2022-10-06T12:23:08.968Z,1024.39
2022-10-06T12:24:08.991Z,1024.39
2022-10-06T12:25:08.913Z,1024.33
2022-10-06T12:26:08.918Z,1024.34
2022-10-06T12:27:09.030Z,1024.35
2022-10-06T12:28:08.922Z,1024.38
2022-10-06T12:29:08.869Z,1024.35
2022-10-06T12:30:08.902Z,1024.30
2022-10-06T12:31:08.936Z,1024.31
2022-10-06T12:32:08.840Z,1024.32
2022-10-06T12:33:08.841Z,1024.31
2022-10-06T12:34:08.797Z,1024.34
2022-10-06T12:35:08.810Z,1024.31
2022-10-06T12:36:08.763Z,1024.28
2022-10-06T12:37:08.796Z,1024.33
2022-10-06T12:38:08.762Z,1024.30
2022-10-06T12:39:08.831Z,1024.26
2022-10-06T12:40:08.755Z,1024.35
2022-10-06T12:41:08.713Z,1024.22
2022-10-06T12:42:08.682Z,1024.28
2022-10-06T12:43:08.660Z,1024.22
2022-10-06T12:44:08.673Z,1024.24
2022-10-06T12:45:08.709Z,1024.25
2022-10-06T12:46:08.676Z,1024.25
2022-10-06T12:47:08.625Z,1024.25
2022-10-06T12:48:08.621Z,1024.27
2022-10-06T12:49:09.431Z,1024.26
2022-10-06T12:50:08.603Z,1024.33
2022-10-06T12:51:08.733Z,1024.30
2022-10-06T12:52:08.566Z,1024.22
2022-10-06T12:53:08.556Z,1024.23
2022-10-06T12:54:08.527Z,1024.24
2022-10-06T12:55:08.523Z,1024.29
2022-10-06T12:56:08.505Z,1024.28
2022-10-06T12:57:08.515Z,1024.25
2022-10-06T12:58:08.487Z,1024.32
2022-10-06T12:59:08.461Z,1024.20
2022-10-06T13:00:08.437Z,1024.22
2022-10-06T13:01:08.463Z,1024.19
2022-10-06T13:02:08.450Z,1024.22
2022-10-06T13:03:08.418Z,1024.20
2022-10-06T13:04:08.400Z,1024.23
2022-10-06T13:05:08.398Z,1024.24
2022-10-06T13:06:08.358Z,1024.22
2022-10-06T13:07:08.769Z,1024.23
2022-10-06T13:08:08.377Z,1024.28
2022-10-06T13:09:08.361Z,1024.26
2022-10-06T13:10:08.322Z,1024.25
2022-10-06T13:11:08.289Z,1024.23
2022-10-06T13:12:08.292Z,1024.20
2022-10-06T13:13:08.282Z,1024.19
2022-10-06T13:14:08.255Z,1024.22
2022-10-06T13:15:08.292Z,1024.19
2022-10-06T13:16:08.247Z,1024.26
2022-10-06T13:17:08.288Z,1024.23
2022-10-06T13:18:08.214Z,1024.22
2022-10-06T13:19:08.188Z,1024.29
2022-10-06T13:20:08.191Z,1024.26
2022-10-06T13:21:08.263Z,1024.29
2022-10-06T13:22:08.164Z,1024.21
2022-10-06T13:23:10.386Z,1024.23
2022-10-06T13:24:08.128Z,1024.33
2022-10-06T13:25:08.126Z,1024.25
2022-10-06T13:26:08.102Z,1024.12
2022-10-06T13:27:08.112Z,1024.32
2022-10-06T13:28:08.142Z,1024.27
2022-10-06T13:30:51.666Z,1024.23
2022-10-06T13:30:56.475Z,1024.11
2022-10-06T13:32:06.596Z,1024.26
2022-10-06T13:34:56.869Z,1024.26
2022-10-06T13:35:01.894Z,1024.16
2022-10-06T13:48:19.799Z,1024.16
2022-10-06T13:48:24.588Z,1024.02
2022-10-06T13:51:39.080Z,1024.12
2022-10-06T13:51:43.892Z,1023.93
2022-10-06T13:58:38.277Z,1023.99
2022-10-06T13:58:43.125Z,1024.05
2022-10-06T15:02:31.874Z,1024.13
2022-10-06T15:02:36.727Z,1023.92
2022-10-06T15:44:10.069Z,1024.00
2022-10-06T15:44:14.919Z,1024.09
2022-10-06T15:45:14.896Z,1024.09
2022-10-06T15:46:14.916Z,1024.13
2022-10-06T15:47:14.856Z,1024.11
2022-10-06T15:48:14.821Z,1024.10
2022-10-06T15:49:14.755Z,1024.20
2022-10-06T15:50:18.822Z,1023.75
2022-10-06T15:51:14.652Z,1023.66
2022-10-06T15:52:14.624Z,1023.76
2022-10-06T15:53:14.630Z,1023.75
2022-10-06T15:54:14.609Z,1023.76
2022-10-06T15:55:14.611Z,1023.77
2022-10-06T15:56:14.583Z,1023.75
2022-10-06T15:57:20.354Z,1023.78
2022-10-06T15:58:15.561Z,1023.79
2022-10-06T15:59:14.553Z,1023.77
2022-10-06T16:00:14.520Z,1023.79
2022-10-06T16:01:14.634Z,1023.80
2022-10-06T16:02:14.831Z,1023.79
2022-10-06T16:03:14.482Z,1023.89
2022-10-06T16:04:14.466Z,1023.82
2022-10-06T16:05:14.466Z,1023.79
2022-10-06T16:06:14.455Z,1023.85
2022-10-06T16:07:14.449Z,1023.88
2022-10-06T16:08:14.427Z,1023.80
2022-10-06T16:09:14.414Z,1023.86
2022-10-06T16:10:14.396Z,1023.83
2022-10-06T16:11:14.397Z,1023.91
2022-10-06T16:12:14.368Z,1023.88
2022-10-06T16:13:14.479Z,1023.96
2022-10-06T16:14:14.343Z,1023.93
2022-10-06T16:15:14.317Z,1023.96
2022-10-06T16:16:14.388Z,1023.95
2022-10-06T16:17:14.299Z,1023.95
2022-10-06T16:18:14.278Z,1023.96
2022-10-06T16:19:15.262Z,1024.04
2022-10-06T16:20:14.280Z,1024.01
2022-10-06T16:21:14.928Z,1024.00